sensor_id;sensor_type;location;lat;lon;timestamp;P1;durP1;ratioP1;P2;durP2;ratioP2
75932;SDS011;64803;52.356;5.310;2023-01-26T00:02:07;79.63;;;19.33;;
75932;SDS011;64803;52.356;5.310;2023-01-26T00:04:34;70.38;;;20.35;;
75932;SDS011;64803;52.356;5.310;2023-01-26T00:07:00;79.72;;;19.17;;
75932;SDS011;64803;52.356;5.310;2023-01-26T00:09:26;72.13;;;16.92;;
75932;SDS011;64803;52.356;5.310;2023-01-26T00:11:52;62.50;;;15.93;;
75932;SDS011;64803;52.356;5.310;2023-01-26T00:14:18;67.93;;;14.18;;
75932;SDS011;64803;52.356;5.310;2023-01-26T00:16:44;91.05;;;19.40;;
75932;SDS011;64803;52.356;5.310;2023-01-26T00:19:10;91.00;;;22.02;;
75932;SDS011;64803;52.356;5.310;2023-01-26T00:21:36;102.13;;;22.42;;
75932;SDS011;64803;52.356;5.310;2023-01-26T00:24:02;95.93;;;24.38;;
75932;SDS011;64803;52.356;5.310;2023-01-26T00:26:29;95.65;;;20.60;;
75932;SDS011;64803;52.356;5.310;2023-01-26T00:28:56;101.28;;;23.10;;
75932;SDS011;64803;52.356;5.310;2023-01-26T00:31:25;96.95;;;21.98;;
75932;SDS011;64803;52.356;5.310;2023-01-26T00:33:52;90.50;;;18.80;;
75932;SDS011;64803;52.356;5.310;2023-01-26T00:36:19;100.53;;;20.70;;
75932;SDS011;64803;52.356;5.310;2023-01-26T00:38:47;89.22;;;20.02;;
75932;SDS011;64803;52.356;5.310;2023-01-26T00:41:13;102.80;;;23.90;;
75932;SDS011;64803;52.356;5.310;2023-01-26T00:43:58;97.53;;;20.73;;
75932;SDS011;64803;52.356;5.310;2023-01-26T00:46:24;91.47;;;20.50;;
75932;SDS011;64803;52.356;5.310;2023-01-26T00:48:50;116.60;;;22.85;;
75932;SDS011;64803;52.356;5.310;2023-01-26T00:51:16;87.93;;;19.83;;
75932;SDS011;64803;52.356;5.310;2023-01-26T00:53:42;98.97;;;24.27;;
75932;SDS011;64803;52.356;5.310;2023-01-26T00:56:09;103.68;;;22.38;;
75932;SDS011;64803;52.356;5.310;2023-01-26T00:58:35;89.60;;;21.00;;
75932;SDS011;64803;52.356;5.310;2023-01-26T01:01:01;69.43;;;16.30;;
75932;SDS011;64803;52.356;5.310;2023-01-26T01:03:27;88.80;;;22.45;;
75932;SDS011;64803;52.356;5.310;2023-01-26T01:05:53;93.32;;;22.73;;
75932;SDS011;64803;52.356;5.310;2023-01-26T01:08:19;85.57;;;18.80;;
75932;SDS011;64803;52.356;5.310;2023-01-26T01:10:45;66.50;;;21.00;;
75932;SDS011;64803;52.356;5.310;2023-01-26T01:13:11;79.93;;;16.33;;
75932;SDS011;64803;52.356;5.310;2023-01-26T01:15:39;86.53;;;18.38;;
75932;SDS011;64803;52.356;5.310;2023-01-26T01:18:05;99.43;;;22.10;;
75932;SDS011;64803;52.356;5.310;2023-01-26T01:20:31;93.82;;;20.60;;
75932;SDS011;64803;52.356;5.310;2023-01-26T01:22:57;105.53;;;21.48;;
75932;SDS011;64803;52.356;5.310;2023-01-26T01:25:22;93.10;;;22.20;;
75932;SDS011;64803;52.356;5.310;2023-01-26T01:27:49;102.97;;;23.60;;
75932;SDS011;64803;52.356;5.310;2023-01-26T01:30:15;110.43;;;23.05;;
75932;SDS011;64803;52.356;5.310;2023-01-26T01:32:42;102.47;;;21.00;;
75932;SDS011;64803;52.356;5.310;2023-01-26T01:35:09;108.72;;;22.92;;
75932;SDS011;64803;52.356;5.310;2023-01-26T01:37:35;93.40;;;20.67;;
75932;SDS011;64803;52.356;5.310;2023-01-26T01:40:01;93.18;;;21.13;;
75932;SDS011;64803;52.356;5.310;2023-01-26T01:42:28;95.28;;;21.20;;
75932;SDS011;64803;52.356;5.310;2023-01-26T01:48:02;90.10;;;19.73;;
75932;SDS011;64803;52.356;5.310;2023-01-26T01:50:32;106.13;;;21.83;;
75932;SDS011;64803;52.356;5.310;2023-01-26T01:53:03;91.25;;;23.08;;
75932;SDS011;64803;52.356;5.310;2023-01-26T01:55:32;102.53;;;23.40;;
75932;SDS011;64803;52.356;5.310;2023-01-26T01:57:58;102.78;;;21.35;;
75932;SDS011;64803;52.356;5.310;2023-01-26T02:00:27;97.55;;;20.77;;
75932;SDS011;64803;52.356;5.310;2023-01-26T02:02:55;105.18;;;22.23;;
75932;SDS011;64803;52.356;5.310;2023-01-26T02:08:21;102.78;;;22.02;;
75932;SDS011;64803;52.356;5.310;2023-01-26T02:10:52;95.40;;;21.60;;
75932;SDS011;64803;52.356;5.310;2023-01-26T02:13:20;97.13;;;21.25;;
75932;SDS011;64803;52.356;5.310;2023-01-26T02:15:48;100.30;;;23.70;;
75932;SDS011;64803;52.356;5.310;2023-01-26T02:18:16;114.95;;;26.30;;
75932;SDS011;64803;52.356;5.310;2023-01-26T02:20:44;111.32;;;23.65;;
75932;SDS011;64803;52.356;5.310;2023-01-26T02:23:31;103.22;;;22.55;;
75932;SDS011;64803;52.356;5.310;2023-01-26T02:26:04;132.05;;;25.65;;
75932;SDS011;64803;52.356;5.310;2023-01-26T02:28:36;143.77;;;26.35;;
75932;SDS011;64803;52.356;5.310;2023-01-26T02:31:03;129.60;;;26.27;;
75932;SDS011;64803;52.356;5.310;2023-01-26T02:33:30;116.43;;;24.17;;
75932;SDS011;64803;52.356;5.310;2023-01-26T02:36:00;131.55;;;26.90;;
75932;SDS011;64803;52.356;5.310;2023-01-26T02:38:29;141.60;;;28.33;;
75932;SDS011;64803;52.356;5.310;2023-01-26T02:41:04;155.85;;;29.95;;
75932;SDS011;64803;52.356;5.310;2023-01-26T02:43:33;95.40;;;18.58;;
75932;SDS011;64803;52.356;5.310;2023-01-26T02:46:00;155.68;;;32.33;;
75932;SDS011;64803;52.356;5.310;2023-01-26T02:48:26;137.70;;;25.70;;
75932;SDS011;64803;52.356;5.310;2023-01-26T02:51:11;116.57;;;25.42;;
75932;SDS011;64803;52.356;5.310;2023-01-26T02:53:37;151.20;;;27.05;;
75932;SDS011;64803;52.356;5.310;2023-01-26T02:56:03;124.60;;;22.77;;
75932;SDS011;64803;52.356;5.310;2023-01-26T02:58:29;116.03;;;23.80;;
75932;SDS011;64803;52.356;5.310;2023-01-26T03:00:55;120.13;;;24.58;;
75932;SDS011;64803;52.356;5.310;2023-01-26T03:03:23;126.03;;;24.90;;
75932;SDS011;64803;52.356;5.310;2023-01-26T03:05:51;141.95;;;27.58;;
75932;SDS011;64803;52.356;5.310;2023-01-26T03:08:17;124.05;;;24.83;;
75932;SDS011;64803;52.356;5.310;2023-01-26T03:10:43;103.85;;;22.90;;
75932;SDS011;64803;52.356;5.310;2023-01-26T03:13:12;120.82;;;24.33;;
75932;SDS011;64803;52.356;5.310;2023-01-26T03:15:38;117.03;;;24.67;;
75932;SDS011;64803;52.356;5.310;2023-01-26T03:18:17;102.85;;;22.63;;
75932;SDS011;64803;52.356;5.310;2023-01-26T03:21:05;50.88;;;11.95;;
75932;SDS011;64803;52.356;5.310;2023-01-26T03:23:57;91.32;;;20.30;;
75932;SDS011;64803;52.356;5.310;2023-01-26T03:26:42;109.00;;;21.45;;
75932;SDS011;64803;52.356;5.310;2023-01-26T03:29:29;94.38;;;19.42;;
75932;SDS011;64803;52.356;5.310;2023-01-26T03:31:58;88.80;;;18.85;;
75932;SDS011;64803;52.356;5.310;2023-01-26T03:34:24;106.10;;;22.00;;
75932;SDS011;64803;52.356;5.310;2023-01-26T03:36:50;96.95;;;20.55;;
75932;SDS011;64803;52.356;5.310;2023-01-26T03:39:18;89.63;;;19.27;;
75932;SDS011;64803;52.356;5.310;2023-01-26T03:42:03;104.95;;;23.00;;
75932;SDS011;64803;52.356;5.310;2023-01-26T03:44:48;88.47;;;19.60;;
75932;SDS011;64803;52.356;5.310;2023-01-26T03:47:33;84.55;;;19.08;;
75932;SDS011;64803;52.356;5.310;2023-01-26T03:50:19;87.80;;;19.20;;
75932;SDS011;64803;52.356;5.310;2023-01-26T03:53:14;95.22;;;20.50;;
75932;SDS011;64803;52.356;5.310;2023-01-26T03:56:00;93.13;;;19.88;;
75932;SDS011;64803;52.356;5.310;2023-01-26T03:58:44;90.35;;;21.15;;
75932;SDS011;64803;52.356;5.310;2023-01-26T04:01:10;93.25;;;21.33;;
75932;SDS011;64803;52.356;5.310;2023-01-26T04:03:43;95.97;;;19.92;;
75932;SDS011;64803;52.356;5.310;2023-01-26T04:06:28;86.13;;;18.33;;
75932;SDS011;64803;52.356;5.310;2023-01-26T04:09:12;83.53;;;19.75;;
75932;SDS011;64803;52.356;5.310;2023-01-26T04:11:39;89.88;;;21.60;;
75932;SDS011;64803;52.356;5.310;2023-01-26T04:14:05;80.25;;;21.10;;
75932;SDS011;64803;52.356;5.310;2023-01-26T04:16:53;85.13;;;18.60;;
75932;SDS011;64803;52.356;5.310;2023-01-26T04:19:37;72.65;;;18.38;;
75932;SDS011;64803;52.356;5.310;2023-01-26T04:22:22;80.18;;;19.17;;
75932;SDS011;64803;52.356;5.310;2023-01-26T04:24:48;78.20;;;19.10;;
75932;SDS011;64803;52.356;5.310;2023-01-26T04:27:14;72.25;;;17.58;;
75932;SDS011;64803;52.356;5.310;2023-01-26T04:29:40;88.45;;;20.00;;
75932;SDS011;64803;52.356;5.310;2023-01-26T04:32:07;81.78;;;18.52;;
75932;SDS011;64803;52.356;5.310;2023-01-26T04:34:34;92.32;;;20.33;;
75932;SDS011;64803;52.356;5.310;2023-01-26T04:37:03;74.13;;;17.52;;
75932;SDS011;64803;52.356;5.310;2023-01-26T04:39:41;81.15;;;19.90;;
75932;SDS011;64803;52.356;5.310;2023-01-26T04:42:08;82.30;;;19.17;;
75932;SDS011;64803;52.356;5.310;2023-01-26T04:44:34;79.13;;;17.73;;
75932;SDS011;64803;52.356;5.310;2023-01-26T04:47:00;88.68;;;18.85;;
75932;SDS011;64803;52.356;5.310;2023-01-26T04:49:27;93.32;;;20.15;;
75932;SDS011;64803;52.356;5.310;2023-01-26T04:51:54;85.40;;;18.42;;
75932;SDS011;64803;52.356;5.310;2023-01-26T04:54:20;95.53;;;21.88;;
75932;SDS011;64803;52.356;5.310;2023-01-26T04:56:46;77.93;;;16.98;;
75932;SDS011;64803;52.356;5.310;2023-01-26T04:59:12;82.40;;;19.88;;
75932;SDS011;64803;52.356;5.310;2023-01-26T05:01:40;75.38;;;17.38;;
75932;SDS011;64803;52.356;5.310;2023-01-26T05:04:07;68.50;;;17.10;;
75932;SDS011;64803;52.356;5.310;2023-01-26T05:06:37;85.88;;;18.45;;
75932;SDS011;64803;52.356;5.310;2023-01-26T05:09:04;74.95;;;17.65;;
75932;SDS011;64803;52.356;5.310;2023-01-26T05:11:32;79.07;;;17.02;;
75932;SDS011;64803;52.356;5.310;2023-01-26T05:14:36;59.40;;;14.93;;
75932;SDS011;64803;52.356;5.310;2023-01-26T05:17:23;66.82;;;15.95;;
75932;SDS011;64803;52.356;5.310;2023-01-26T05:20:07;94.00;;;19.25;;
75932;SDS011;64803;52.356;5.310;2023-01-26T05:22:57;95.45;;;19.52;;
75932;SDS011;64803;52.356;5.310;2023-01-26T05:25:52;76.60;;;17.50;;
75932;SDS011;64803;52.356;5.310;2023-01-26T05:28:18;86.68;;;17.85;;
75932;SDS011;64803;52.356;5.310;2023-01-26T05:30:45;91.80;;;19.95;;
75932;SDS011;64803;52.356;5.310;2023-01-26T05:33:12;88.78;;;18.83;;
75932;SDS011;64803;52.356;5.310;2023-01-26T05:35:38;92.97;;;19.00;;
75932;SDS011;64803;52.356;5.310;2023-01-26T05:38:07;82.80;;;18.98;;
75932;SDS011;64803;52.356;5.310;2023-01-26T05:40:33;79.43;;;18.27;;
75932;SDS011;64803;52.356;5.310;2023-01-26T05:42:59;73.85;;;17.23;;
75932;SDS011;64803;52.356;5.310;2023-01-26T05:45:54;77.05;;;18.80;;
75932;SDS011;64803;52.356;5.310;2023-01-26T05:48:21;61.67;;;15.73;;
75932;SDS011;64803;52.356;5.310;2023-01-26T05:50:50;77.32;;;18.40;;
75932;SDS011;64803;52.356;5.310;2023-01-26T05:53:18;72.28;;;17.65;;
75932;SDS011;64803;52.356;5.310;2023-01-26T05:55:45;85.25;;;20.15;;
75932;SDS011;64803;52.356;5.310;2023-01-26T05:58:12;68.97;;;17.88;;
75932;SDS011;64803;52.356;5.310;2023-01-26T06:00:38;77.63;;;16.42;;
75932;SDS011;64803;52.356;5.310;2023-01-26T06:03:10;70.03;;;16.83;;
75932;SDS011;64803;52.356;5.310;2023-01-26T06:05:36;65.40;;;15.88;;
75932;SDS011;64803;52.356;5.310;2023-01-26T06:08:10;67.68;;;16.58;;
75932;SDS011;64803;52.356;5.310;2023-01-26T06:11:07;76.72;;;16.23;;
75932;SDS011;64803;52.356;5.310;2023-01-26T06:13:45;61.25;;;16.38;;
75932;SDS011;64803;52.356;5.310;2023-01-26T06:16:23;80.53;;;18.55;;
75932;SDS011;64803;52.356;5.310;2023-01-26T06:18:49;72.05;;;16.95;;
75932;SDS011;64803;52.356;5.310;2023-01-26T06:21:16;74.70;;;17.13;;
75932;SDS011;64803;52.356;5.310;2023-01-26T06:23:43;62.40;;;15.30;;
75932;SDS011;64803;52.356;5.310;2023-01-26T06:26:10;62.10;;;16.48;;
75932;SDS011;64803;52.356;5.310;2023-01-26T06:28:40;75.93;;;15.98;;
75932;SDS011;64803;52.356;5.310;2023-01-26T06:31:07;81.95;;;16.70;;
75932;SDS011;64803;52.356;5.310;2023-01-26T06:33:37;78.78;;;18.15;;
75932;SDS011;64803;52.356;5.310;2023-01-26T06:36:08;74.55;;;16.02;;
75932;SDS011;64803;52.356;5.310;2023-01-26T06:38:38;71.53;;;15.50;;
75932;SDS011;64803;52.356;5.310;2023-01-26T06:41:09;67.70;;;14.05;;
75932;SDS011;64803;52.356;5.310;2023-01-26T06:43:35;63.00;;;14.63;;
75932;SDS011;64803;52.356;5.310;2023-01-26T06:46:03;65.10;;;15.80;;
75932;SDS011;64803;52.356;5.310;2023-01-26T06:48:32;54.28;;;13.88;;
75932;SDS011;64803;52.356;5.310;2023-01-26T06:53:52;63.70;;;14.20;;
75932;SDS011;64803;52.356;5.310;2023-01-26T06:56:30;62.92;;;15.63;;
75932;SDS011;64803;52.356;5.310;2023-01-26T06:59:19;68.70;;;14.35;;
75932;SDS011;64803;52.356;5.310;2023-01-26T07:02:16;62.28;;;15.25;;
75932;SDS011;64803;52.356;5.310;2023-01-26T07:04:44;73.78;;;14.85;;
75932;SDS011;64803;52.356;5.310;2023-01-26T07:07:11;65.57;;;15.27;;
75932;SDS011;64803;52.356;5.310;2023-01-26T07:09:37;67.07;;;14.35;;
75932;SDS011;64803;52.356;5.310;2023-01-26T07:12:03;40.42;;;10.15;;
75932;SDS011;64803;52.356;5.310;2023-01-26T07:14:30;54.05;;;13.00;;
75932;SDS011;64803;52.356;5.310;2023-01-26T07:16:57;50.08;;;11.98;;
75932;SDS011;64803;52.356;5.310;2023-01-26T07:19:23;54.78;;;12.85;;
75932;SDS011;64803;52.356;5.310;2023-01-26T07:21:49;44.90;;;9.40;;
75932;SDS011;64803;52.356;5.310;2023-01-26T07:24:15;28.95;;;6.57;;
75932;SDS011;64803;52.356;5.310;2023-01-26T07:26:41;31.70;;;6.63;;
75932;SDS011;64803;52.356;5.310;2023-01-26T07:29:07;49.28;;;10.50;;
75932;SDS011;64803;52.356;5.310;2023-01-26T07:31:33;39.25;;;5.68;;
75932;SDS011;64803;52.356;5.310;2023-01-26T07:33:59;28.92;;;5.28;;
75932;SDS011;64803;52.356;5.310;2023-01-26T07:36:25;39.75;;;7.32;;
75932;SDS011;64803;52.356;5.310;2023-01-26T07:38:51;38.10;;;6.03;;
75932;SDS011;64803;52.356;5.310;2023-01-26T07:41:17;47.97;;;5.65;;
75932;SDS011;64803;52.356;5.310;2023-01-26T07:43:42;23.17;;;3.40;;
75932;SDS011;64803;52.356;5.310;2023-01-26T07:46:09;27.98;;;2.92;;
75932;SDS011;64803;52.356;5.310;2023-01-26T07:48:37;34.85;;;3.83;;
75932;SDS011;64803;52.356;5.310;2023-01-26T07:51:06;17.23;;;3.15;;
75932;SDS011;64803;52.356;5.310;2023-01-26T07:53:33;12.73;;;2.15;;
75932;SDS011;64803;52.356;5.310;2023-01-26T07:56:13;17.52;;;2.35;;
75932;SDS011;64803;52.356;5.310;2023-01-26T07:58:41;25.45;;;2.90;;
75932;SDS011;64803;52.356;5.310;2023-01-26T08:01:11;16.15;;;2.25;;
75932;SDS011;64803;52.356;5.310;2023-01-26T08:03:39;16.20;;;2.38;;
75932;SDS011;64803;52.356;5.310;2023-01-26T08:06:06;22.98;;;2.65;;
75932;SDS011;64803;52.356;5.310;2023-01-26T08:08:33;15.50;;;1.88;;
75932;SDS011;64803;52.356;5.310;2023-01-26T08:10:59;16.30;;;2.42;;
75932;SDS011;64803;52.356;5.310;2023-01-26T08:13:27;18.35;;;2.83;;
75932;SDS011;64803;52.356;5.310;2023-01-26T08:15:58;20.65;;;2.35;;
75932;SDS011;64803;52.356;5.310;2023-01-26T08:18:25;21.95;;;3.08;;
75932;SDS011;64803;52.356;5.310;2023-01-26T08:20:51;16.25;;;3.65;;
75932;SDS011;64803;52.356;5.310;2023-01-26T08:23:18;17.92;;;2.17;;
75932;SDS011;64803;52.356;5.310;2023-01-26T08:25:45;11.38;;;1.63;;
75932;SDS011;64803;52.356;5.310;2023-01-26T08:28:11;18.98;;;2.45;;
75932;SDS011;64803;52.356;5.310;2023-01-26T08:30:37;13.45;;;1.55;;
75932;SDS011;64803;52.356;5.310;2023-01-26T08:33:04;9.07;;;1.67;;
75932;SDS011;64803;52.356;5.310;2023-01-26T08:35:30;10.82;;;1.35;;
75932;SDS011;64803;52.356;5.310;2023-01-26T08:37:57;16.58;;;2.38;;
75932;SDS011;64803;52.356;5.310;2023-01-26T08:40:23;21.80;;;2.33;;
75932;SDS011;64803;52.356;5.310;2023-01-26T08:42:50;17.55;;;3.03;;
75932;SDS011;64803;52.356;5.310;2023-01-26T08:45:17;14.80;;;1.83;;
75932;SDS011;64803;52.356;5.310;2023-01-26T08:47:43;12.20;;;2.00;;
75932;SDS011;64803;52.356;5.310;2023-01-26T08:50:10;18.45;;;3.03;;
75932;SDS011;64803;52.356;5.310;2023-01-26T08:52:36;19.63;;;3.42;;
75932;SDS011;64803;52.356;5.310;2023-01-26T08:55:02;13.32;;;1.92;;
75932;SDS011;64803;52.356;5.310;2023-01-26T08:57:29;15.70;;;2.63;;
75932;SDS011;64803;52.356;5.310;2023-01-26T08:59:55;12.68;;;2.10;;
75932;SDS011;64803;52.356;5.310;2023-01-26T09:02:21;16.75;;;3.13;;
75932;SDS011;64803;52.356;5.310;2023-01-26T09:04:47;9.70;;;1.60;;
75932;SDS011;64803;52.356;5.310;2023-01-26T09:07:13;16.25;;;2.50;;
75932;SDS011;64803;52.356;5.310;2023-01-26T09:09:40;13.82;;;1.58;;
75932;SDS011;64803;52.356;5.310;2023-01-26T09:12:06;15.43;;;1.98;;
75932;SDS011;64803;52.356;5.310;2023-01-26T09:14:32;5.55;;;1.95;;
75932;SDS011;64803;52.356;5.310;2023-01-26T09:16:58;3.92;;;1.70;;
75932;SDS011;64803;52.356;5.310;2023-01-26T09:19:23;11.35;;;1.67;;
75932;SDS011;64803;52.356;5.310;2023-01-26T09:21:53;23.83;;;2.50;;
75932;SDS011;64803;52.356;5.310;2023-01-26T09:24:20;16.30;;;2.05;;
75932;SDS011;64803;52.356;5.310;2023-01-26T09:26:46;10.63;;;2.00;;
75932;SDS011;64803;52.356;5.310;2023-01-26T09:29:12;19.20;;;2.67;;
75932;SDS011;64803;52.356;5.310;2023-01-26T09:31:38;21.60;;;2.67;;
75932;SDS011;64803;52.356;5.310;2023-01-26T09:34:05;13.48;;;1.73;;
75932;SDS011;64803;52.356;5.310;2023-01-26T09:36:31;8.77;;;1.38;;
75932;SDS011;64803;52.356;5.310;2023-01-26T09:38:58;20.02;;;3.22;;
75932;SDS011;64803;52.356;5.310;2023-01-26T09:44:10;20.30;;;1.30;;
75932;SDS011;64803;52.356;5.310;2023-01-26T09:49:40;10.13;;;2.17;;
75932;SDS011;64803;52.356;5.310;2023-01-26T09:55:16;26.50;;;2.92;;
75932;SDS011;64803;52.356;5.310;2023-01-26T10:08:09;23.20;;;1.77;;
75932;SDS011;64803;52.356;5.310;2023-01-26T10:10:43;9.85;;;1.58;;
75932;SDS011;64803;52.356;5.310;2023-01-26T10:13:14;8.25;;;1.50;;
75932;SDS011;64803;52.356;5.310;2023-01-26T10:15:42;13.10;;;1.63;;
75932;SDS011;64803;52.356;5.310;2023-01-26T10:18:55;18.98;;;1.70;;
75932;SDS011;64803;52.356;5.310;2023-01-26T10:21:24;4.18;;;1.17;;
75932;SDS011;64803;52.356;5.310;2023-01-26T10:23:53;10.85;;;1.58;;
75932;SDS011;64803;52.356;5.310;2023-01-26T10:26:21;17.80;;;2.58;;
75932;SDS011;64803;52.356;5.310;2023-01-26T10:28:49;16.73;;;1.73;;
75932;SDS011;64803;52.356;5.310;2023-01-26T10:31:17;13.18;;;2.22;;
75932;SDS011;64803;52.356;5.310;2023-01-26T10:33:49;23.55;;;2.53;;
75932;SDS011;64803;52.356;5.310;2023-01-26T10:36:17;10.65;;;1.73;;
75932;SDS011;64803;52.356;5.310;2023-01-26T10:38:44;12.35;;;1.85;;
75932;SDS011;64803;52.356;5.310;2023-01-26T10:43:58;14.48;;;1.92;;
75932;SDS011;64803;52.356;5.310;2023-01-26T10:51:32;5.80;;;1.30;;
75932;SDS011;64803;52.356;5.310;2023-01-26T10:56:54;12.45;;;1.52;;
75932;SDS011;64803;52.356;5.310;2023-01-26T11:02:25;15.30;;;2.55;;
75932;SDS011;64803;52.356;5.310;2023-01-26T11:07:34;22.10;;;2.33;;
75932;SDS011;64803;52.356;5.310;2023-01-26T11:13:12;21.77;;;2.20;;
75932;SDS011;64803;52.356;5.310;2023-01-26T11:15:41;10.07;;;2.17;;
75932;SDS011;64803;52.356;5.310;2023-01-26T11:18:12;18.23;;;2.58;;
75932;SDS011;64803;52.356;5.310;2023-01-26T11:20:56;15.38;;;1.83;;
75932;SDS011;64803;52.356;5.310;2023-01-26T11:31:41;12.93;;;1.77;;
75932;SDS011;64803;52.356;5.310;2023-01-26T11:42:36;13.57;;;2.45;;
75932;SDS011;64803;52.356;5.310;2023-01-26T11:45:15;20.98;;;2.33;;
75932;SDS011;64803;52.356;5.310;2023-01-26T11:59:21;11.07;;;1.65;;
75932;SDS011;64803;52.356;5.310;2023-01-26T12:04:30;11.57;;;1.40;;
75932;SDS011;64803;52.356;5.310;2023-01-26T12:07:02;10.55;;;1.67;;
75932;SDS011;64803;52.356;5.310;2023-01-26T12:09:38;11.98;;;2.10;;
75932;SDS011;64803;52.356;5.310;2023-01-26T12:12:18;17.60;;;1.83;;
75932;SDS011;64803;52.356;5.310;2023-01-26T12:14:51;8.27;;;1.48;;
75932;SDS011;64803;52.356;5.310;2023-01-26T12:23:11;9.55;;;0.90;;
75932;SDS011;64803;52.356;5.310;2023-01-26T12:25:52;16.45;;;2.10;;
75932;SDS011;64803;52.356;5.310;2023-01-26T12:31:34;14.75;;;1.98;;
75932;SDS011;64803;52.356;5.310;2023-01-26T12:34:09;15.55;;;2.00;;
75932;SDS011;64803;52.356;5.310;2023-01-26T12:36:52;3.95;;;1.00;;
75932;SDS011;64803;52.356;5.310;2023-01-26T12:39:34;15.25;;;2.28;;
75932;SDS011;64803;52.356;5.310;2023-01-26T12:45:10;6.22;;;1.45;;
75932;SDS011;64803;52.356;5.310;2023-01-26T12:47:53;10.38;;;1.60;;
75932;SDS011;64803;52.356;5.310;2023-01-26T12:50:31;9.38;;;1.42;;
75932;SDS011;64803;52.356;5.310;2023-01-26T12:53:08;14.48;;;1.35;;
75932;SDS011;64803;52.356;5.310;2023-01-26T12:58:32;18.02;;;2.03;;
75932;SDS011;64803;52.356;5.310;2023-01-26T13:01:03;5.70;;;1.30;;
75932;SDS011;64803;52.356;5.310;2023-01-26T13:03:34;15.98;;;2.13;;
75932;SDS011;64803;52.356;5.310;2023-01-26T13:11:00;8.13;;;1.52;;
75932;SDS011;64803;52.356;5.310;2023-01-26T13:13:51;16.17;;;1.88;;
75932;SDS011;64803;52.356;5.310;2023-01-26T13:18:48;8.65;;;1.25;;
75932;SDS011;64803;52.356;5.310;2023-01-26T13:21:26;4.78;;;0.77;;
75932;SDS011;64803;52.356;5.310;2023-01-26T13:26:48;10.00;;;1.23;;
75932;SDS011;64803;52.356;5.310;2023-01-26T13:31:50;5.40;;;1.20;;
75932;SDS011;64803;52.356;5.310;2023-01-26T13:34:18;9.20;;;1.35;;
75932;SDS011;64803;52.356;5.310;2023-01-26T13:36:47;8.90;;;1.52;;
75932;SDS011;64803;52.356;5.310;2023-01-26T13:39:19;15.00;;;1.88;;
75932;SDS011;64803;52.356;5.310;2023-01-26T13:41:53;10.07;;;1.02;;
75932;SDS011;64803;52.356;5.310;2023-01-26T13:44:20;4.28;;;1.23;;
75932;SDS011;64803;52.356;5.310;2023-01-26T13:47:06;17.08;;;1.40;;
75932;SDS011;64803;52.356;5.310;2023-01-26T13:49:37;9.50;;;1.65;;
75932;SDS011;64803;52.356;5.310;2023-01-26T13:52:20;10.43;;;1.45;;
75932;SDS011;64803;52.356;5.310;2023-01-26T13:54:51;8.25;;;1.23;;
75932;SDS011;64803;52.356;5.310;2023-01-26T13:57:19;14.43;;;2.10;;
75932;SDS011;64803;52.356;5.310;2023-01-26T13:59:51;11.90;;;1.55;;
75932;SDS011;64803;52.356;5.310;2023-01-26T14:02:33;7.10;;;0.95;;
75932;SDS011;64803;52.356;5.310;2023-01-26T14:05:00;7.07;;;1.05;;
75932;SDS011;64803;52.356;5.310;2023-01-26T14:07:31;13.63;;;1.23;;
75932;SDS011;64803;52.356;5.310;2023-01-26T14:10:02;6.18;;;1.05;;
75932;SDS011;64803;52.356;5.310;2023-01-26T14:12:31;12.15;;;1.23;;
75932;SDS011;64803;52.356;5.310;2023-01-26T14:15:02;5.43;;;0.50;;
75932;SDS011;64803;52.356;5.310;2023-01-26T14:17:31;18.27;;;1.30;;
75932;SDS011;64803;52.356;5.310;2023-01-26T14:19:59;11.20;;;1.70;;
75932;SDS011;64803;52.356;5.310;2023-01-26T14:22:28;5.88;;;0.98;;
75932;SDS011;64803;52.356;5.310;2023-01-26T14:24:55;12.48;;;1.17;;
75932;SDS011;64803;52.356;5.310;2023-01-26T14:27:32;6.40;;;1.15;;
75932;SDS011;64803;52.356;5.310;2023-01-26T14:30:19;6.63;;;1.08;;
75932;SDS011;64803;52.356;5.310;2023-01-26T14:32:46;7.70;;;0.98;;
75932;SDS011;64803;52.356;5.310;2023-01-26T14:35:17;6.75;;;0.43;;
75932;SDS011;64803;52.356;5.310;2023-01-26T14:38:02;8.02;;;1.05;;
75932;SDS011;64803;52.356;5.310;2023-01-26T14:40:53;11.82;;;1.17;;
75932;SDS011;64803;52.356;5.310;2023-01-26T14:43:21;12.07;;;1.50;;
75932;SDS011;64803;52.356;5.310;2023-01-26T14:45:50;8.82;;;0.70;;
75932;SDS011;64803;52.356;5.310;2023-01-26T14:48:25;5.55;;;0.93;;
75932;SDS011;64803;52.356;5.310;2023-01-26T14:50:57;4.13;;;1.20;;
75932;SDS011;64803;52.356;5.310;2023-01-26T14:53:24;11.05;;;1.55;;
75932;SDS011;64803;52.356;5.310;2023-01-26T14:55:50;18.02;;;2.03;;
75932;SDS011;64803;52.356;5.310;2023-01-26T14:58:19;2.80;;;0.20;;
75932;SDS011;64803;52.356;5.310;2023-01-26T15:00:56;6.05;;;1.77;;
75932;SDS011;64803;52.356;5.310;2023-01-26T15:03:34;7.50;;;1.13;;
75932;SDS011;64803;52.356;5.310;2023-01-26T15:08:39;14.88;;;2.03;;
75932;SDS011;64803;52.356;5.310;2023-01-26T15:11:06;10.25;;;1.60;;
75932;SDS011;64803;52.356;5.310;2023-01-26T15:13:53;16.70;;;1.42;;
75932;SDS011;64803;52.356;5.310;2023-01-26T15:16:21;6.30;;;1.20;;
75932;SDS011;64803;52.356;5.310;2023-01-26T15:21:27;3.72;;;0.70;;
75932;SDS011;64803;52.356;5.310;2023-01-26T15:23:58;10.70;;;1.23;;
75932;SDS011;64803;52.356;5.310;2023-01-26T15:26:25;3.97;;;0.73;;
75932;SDS011;64803;52.356;5.310;2023-01-26T15:28:55;8.77;;;1.17;;
75932;SDS011;64803;52.356;5.310;2023-01-26T15:31:28;10.02;;;1.10;;
75932;SDS011;64803;52.356;5.310;2023-01-26T15:34:02;5.80;;;1.27;;
75932;SDS011;64803;52.356;5.310;2023-01-26T15:36:30;3.85;;;0.50;;
75932;SDS011;64803;52.356;5.310;2023-01-26T15:39:21;9.02;;;0.93;;
75932;SDS011;64803;52.356;5.310;2023-01-26T15:44:52;4.60;;;0.40;;
75932;SDS011;64803;52.356;5.310;2023-01-26T15:47:18;10.07;;;1.52;;
75932;SDS011;64803;52.356;5.310;2023-01-26T15:49:44;7.43;;;0.73;;
75932;SDS011;64803;52.356;5.310;2023-01-26T15:54:40;14.40;;;1.27;;
75932;SDS011;64803;52.356;5.310;2023-01-26T15:57:07;6.78;;;1.05;;
75932;SDS011;64803;52.356;5.310;2023-01-26T15:59:35;13.18;;;1.25;;
75932;SDS011;64803;52.356;5.310;2023-01-26T16:02:05;3.80;;;0.95;;
75932;SDS011;64803;52.356;5.310;2023-01-26T16:04:38;2.17;;;0.47;;
75932;SDS011;64803;52.356;5.310;2023-01-26T16:07:08;4.65;;;0.80;;
75932;SDS011;64803;52.356;5.310;2023-01-26T16:09:36;4.03;;;0.60;;
75932;SDS011;64803;52.356;5.310;2023-01-26T16:12:02;4.00;;;1.02;;
75932;SDS011;64803;52.356;5.310;2023-01-26T16:14:28;7.75;;;0.98;;
75932;SDS011;64803;52.356;5.310;2023-01-26T16:16:54;10.25;;;1.02;;
75932;SDS011;64803;52.356;5.310;2023-01-26T16:19:20;3.40;;;0.52;;
75932;SDS011;64803;52.356;5.310;2023-01-26T16:21:46;3.85;;;0.73;;
75932;SDS011;64803;52.356;5.310;2023-01-26T16:24:12;8.02;;;0.80;;
75932;SDS011;64803;52.356;5.310;2023-01-26T16:26:38;12.30;;;1.02;;
75932;SDS011;64803;52.356;5.310;2023-01-26T16:29:03;12.57;;;1.15;;
75932;SDS011;64803;52.356;5.310;2023-01-26T16:31:30;7.03;;;1.08;;
75932;SDS011;64803;52.356;5.310;2023-01-26T16:33:58;9.02;;;1.20;;
75932;SDS011;64803;52.356;5.310;2023-01-26T16:36:25;8.70;;;1.25;;
75932;SDS011;64803;52.356;5.310;2023-01-26T16:38:52;3.47;;;0.70;;
75932;SDS011;64803;52.356;5.310;2023-01-26T16:41:20;9.15;;;1.20;;
75932;SDS011;64803;52.356;5.310;2023-01-26T16:43:49;9.35;;;1.15;;
75932;SDS011;64803;52.356;5.310;2023-01-26T16:46:15;6.90;;;1.08;;